Time;durP1;ratioP1;P1;durP2;ratioP2;P2;SDS_P1;SDS_P2;PMS_P1;PMS_P2;Temp;Humidity;BMP_temperature;BMP_pressure;BME280_temperature;BME280_humidity;BME280_pressure;Samples;Min_cycle;Max_cycle;Signal;HPM_P1;HPM_P2
2023/03/01 04:00:39;;;;;;;34.25;12.98;;;-1.40;99.90;;;;;;6270850;22;20023;-78
2023/03/01 04:03:05;;;;;;;59.38;14.95;;;-1.40;99.90;;;;;;6282165;22;20018;-81
2023/03/01 04:05:31;;;;;;;39.78;14.68;;;-1.40;99.90;;;;;;6282474;22;20392;-79
2023/03/01 04:08:06;;;;;;;40.92;14.70;;;-1.50;99.90;;;;;;6282314;22;20011;-78
2023/03/01 04:10:38;;;;;;;92.03;16.40;;;-1.40;99.90;;;;;;6309634;22;20440;-78
2023/03/01 04:13:05;;;;;;;77.82;15.52;;;-1.50;99.90;;;;;;6282113;22;20313;-78
2023/03/01 04:15:32;;;;;;;103.63;16.17;;;-1.50;99.90;;;;;;6282052;22;20488;-77
2023/03/01 04:17:59;;;;;;;91.55;17.13;;;-1.60;99.90;;;;;;6282030;22;20017;-78
2023/03/01 04:20:28;;;;;;;61.75;14.73;;;-1.60;99.90;;;;;;6308844;22;20475;-78
2023/03/01 04:25:58;;;;;;;122.85;16.50;;;-1.70;99.90;;;;;;6262129;22;20059;-78
2023/03/01 04:28:30;;;;;;;72.93;16.80;;;-1.70;99.90;;;;;;6281202;22;20073;-78
2023/03/01 04:31:14;;;;;;;84.45;18.15;;;-1.70;99.90;;;;;;6255505;22;20015;-79
2023/03/01 04:33:45;;;;;;;93.53;15.75;;;-1.70;99.90;;;;;;6280867;22;20043;-77
2023/03/01 04:36:12;;;;;;;107.03;18.08;;;-1.80;99.90;;;;;;6281164;22;20065;-79
2023/03/01 04:38:39;;;;;;;100.68;16.38;;;-1.80;99.90;;;;;;6281237;22;20060;-79
2023/03/01 04:41:07;;;;;;;91.50;16.92;;;-1.90;99.90;;;;;;6280753;22;20022;-78
2023/03/01 04:43:33;;;;;;;58.60;16.73;;;-1.90;99.90;;;;;;6280842;22;20115;-77
2023/03/01 04:46:09;;;;;;;54.05;16.33;;;-2.00;99.90;;;;;;6280937;22;20017;-79
2023/03/01 04:48:36;;;;;;;70.53;16.27;;;-2.00;99.90;;;;;;6281341;22;20039;-77
2023/03/01 04:51:02;;;;;;;42.30;14.60;;;-2.10;99.90;;;;;;6281381;22;20056;-79
2023/03/01 04:53:28;;;;;;;41.38;14.77;;;-2.00;99.90;;;;;;6281632;22;20019;-77
2023/03/01 04:55:55;;;;;;;28.65;14.93;;;-2.00;99.90;;;;;;6281468;22;20019;-77
2023/03/01 04:58:26;;;;;;;24.73;13.80;;;-2.00;99.90;;;;;;6308977;22;20011;-78
2023/03/01 05:00:52;;;;;;;23.83;14.07;;;-2.00;99.90;;;;;;6281937;22;20404;-78
2023/03/01 05:03:18;;;;;;;25.60;13.57;;;-1.90;99.90;;;;;;6309387;22;20007;-79
2023/03/01 05:05:46;;;;;;;27.63;14.80;;;-1.90;99.90;;;;;;6282201;22;20018;-78
2023/03/01 05:08:17;;;;;;;25.98;14.45;;;-1.90;99.90;;;;;;6309707;22;20011;-79
2023/03/01 05:10:45;;;;;;;26.25;13.52;;;-1.90;99.90;;;;;;6281790;22;20017;-78
2023/03/01 05:13:13;;;;;;;24.40;14.10;;;-1.90;99.90;;;;;;6309947;22;20007;-79
2023/03/01 05:15:39;;;;;;;23.48;13.02;;;-1.90;99.90;;;;;;6282647;22;20050;-79
2023/03/01 05:18:11;;;;;;;26.05;13.82;;;-1.90;99.90;;;;;;6281484;22;20015;-78
2023/03/01 05:20:38;;;;;;;22.65;13.02;;;-2.00;99.90;;;;;;6307118;22;20073;-78
2023/03/01 05:23:05;;;;;;;21.30;12.98;;;-2.00;99.90;;;;;;6308824;22;20023;-77
2023/03/01 05:25:32;;;;;;;22.08;13.45;;;-2.00;99.90;;;;;;6309070;22;20031;-77
2023/03/01 05:28:04;;;;;;;22.98;13.00;;;-2.00;99.90;;;;;;6309497;22;20086;-78
2023/03/01 05:30:34;;;;;;;24.52;13.18;;;-2.00;99.90;;;;;;6281343;22;20019;-78
2023/03/01 05:33:00;;;;;;;22.50;13.25;;;-2.10;99.90;;;;;;6281026;22;20094;-78
2023/03/01 05:35:26;;;;;;;21.52;13.07;;;-2.20;99.90;;;;;;6281030;22;20019;-79
2023/03/01 05:37:52;;;;;;;21.63;12.90;;;-2.20;99.90;;;;;;6255706;22;20022;-78
2023/03/01 05:40:21;;;;;;;25.02;13.52;;;-2.20;99.90;;;;;;6255397;22;20015;-79
2023/03/01 05:42:49;;;;;;;24.10;14.07;;;-2.20;99.90;;;;;;6281341;22;20088;-79
2023/03/01 05:45:16;;;;;;;24.85;13.88;;;-2.10;99.90;;;;;;6308844;22;20015;-77
2023/03/01 05:47:43;;;;;;;23.27;13.10;;;-2.10;99.90;;;;;;6281136;22;20371;-77
2023/03/01 05:50:18;;;;;;;21.92;12.98;;;-2.10;99.90;;;;;;6308701;22;20011;-78
2023/03/01 05:52:49;;;;;;;25.30;14.15;;;-2.10;99.90;;;;;;6281570;22;20015;-76
2023/03/01 05:55:19;;;;;;;22.88;12.60;;;-2.10;99.90;;;;;;6308378;22;20050;-78
2023/03/01 05:57:45;;;;;;;21.63;12.57;;;-2.10;99.90;;;;;;6281293;22;20097;-78
2023/03/01 06:00:13;;;;;;;28.00;13.68;;;-2.10;99.90;;;;;;6280962;22;20015;-77
2023/03/01 06:02:39;;;;;;;22.90;12.77;;;-2.10;99.90;;;;;;6281138;22;20029;-78
2023/03/01 06:05:07;;;;;;;21.10;12.70;;;-2.10;99.90;;;;;;6281883;22;20007;-77
2023/03/01 06:07:33;;;;;;;21.50;12.27;;;-2.20;99.90;;;;;;6280531;22;20026;-77
2023/03/01 06:09:59;;;;;;;21.33;12.90;;;-2.10;99.90;;;;;;6280940;22;20336;-79
2023/03/01 06:12:24;;;;;;;23.67;13.65;;;-2.10;99.90;;;;;;6281190;22;20011;-78
2023/03/01 06:14:50;;;;;;;22.75;12.75;;;-2.20;99.90;;;;;;6281352;22;20510;-79
2023/03/01 06:17:15;;;;;;;21.60;12.63;;;-2.20;99.90;;;;;;6309004;22;20012;-77
2023/03/01 06:19:41;;;;;;;21.33;12.25;;;-2.20;99.90;;;;;;6281198;22;20016;-78
2023/03/01 06:22:08;;;;;;;21.30;12.43;;;-2.20;99.90;;;;;;6281280;22;20340;-77
2023/03/01 06:24:33;;;;;;;23.38;13.60;;;-2.10;99.90;;;;;;6281031;22;20011;-78
2023/03/01 06:27:02;;;;;;;20.33;11.93;;;-2.10;99.90;;;;;;6308914;22;20019;-76
2023/03/01 06:29:28;;;;;;;22.15;12.45;;;-2.10;99.90;;;;;;6281049;22;20012;-77
2023/03/01 06:31:53;;;;;;;22.10;12.73;;;-2.20;99.90;;;;;;6254977;22;20011;-78
2023/03/01 06:34:21;;;;;;;21.48;12.30;;;-2.20;99.90;;;;;;6281238;22;20021;-78
2023/03/01 06:36:47;;;;;;;20.27;12.02;;;-2.10;99.90;;;;;;6280933;22;20015;-78
2023/03/01 06:39:13;;;;;;;21.00;12.43;;;-2.10;99.90;;;;;;6281003;22;20015;-78
2023/03/01 06:41:38;;;;;;;25.20;14.32;;;-2.10;99.90;;;;;;6280942;22;20012;-77
2023/03/01 06:44:04;;;;;;;24.15;14.07;;;-2.10;99.90;;;;;;6308957;22;20014;-78
2023/03/01 06:46:30;;;;;;;28.58;15.40;;;-2.10;99.90;;;;;;6308312;22;20007;-79
2023/03/01 06:48:55;;;;;;;25.20;14.30;;;-2.10;99.90;;;;;;6255322;22;20007;-78
2023/03/01 06:51:21;;;;;;;30.83;16.75;;;-2.20;99.90;;;;;;6280920;22;20144;-79
2023/03/01 06:53:47;;;;;;;28.60;15.25;;;-2.20;99.90;;;;;;6280896;22;20017;-79
2023/03/01 06:56:12;;;;;;;25.05;14.60;;;-2.20;99.90;;;;;;6254790;22;20019;-78
2023/03/01 06:58:38;;;;;;;23.45;13.32;;;-2.20;99.90;;;;;;6308265;22;20329;-78
2023/03/01 07:01:08;;;;;;;20.55;12.13;;;-2.10;99.90;;;;;;6280536;22;20022;-79
2023/03/01 07:03:33;;;;;;;21.90;12.95;;;-2.10;99.90;;;;;;6280996;22;20012;-79
2023/03/01 07:05:59;;;;;;;22.23;12.48;;;-2.10;99.90;;;;;;6308157;22;20009;-79
2023/03/01 07:08:25;;;;;;;20.85;11.77;;;-2.10;99.90;;;;;;6280923;22;20015;-78
2023/03/01 07:10:57;;;;;;;18.75;11.55;;;-2.10;99.90;;;;;;6280722;22;20019;-79
2023/03/01 07:13:23;;;;;;;21.85;13.02;;;-2.10;99.90;;;;;;6280995;22;20030;-80
2023/03/01 07:15:49;;;;;;;22.25;13.15;;;-2.00;99.90;;;;;;6255191;22;20019;-79
2023/03/01 07:18:15;;;;;;;27.27;14.55;;;-2.00;99.90;;;;;;6280957;22;20345;-79
2023/03/01 07:20:40;;;;;;;23.77;13.98;;;-1.90;99.90;;;;;;6280080;22;20011;-80
2023/03/01 07:23:06;;;;;;;24.23;13.98;;;-1.90;99.90;;;;;;6255083;22;20019;-78
2023/03/01 07:25:32;;;;;;;24.83;14.52;;;-1.80;99.90;;;;;;6280742;22;20011;-78
2023/03/01 07:27:58;;;;;;;26.05;14.02;;;-1.80;99.90;;;;;;6280450;22;20411;-79
2023/03/01 07:30:28;;;;;;;24.02;13.27;;;-1.80;99.90;;;;;;6280627;22;20126;-78
2023/03/01 07:32:55;;;;;;;24.63;14.13;;;-1.70;99.90;;;;;;6308544;22;20082;-78
2023/03/01 07:35:21;;;;;;;24.98;15.07;;;-1.70;99.90;;;;;;6280231;22;20344;-78
2023/03/01 07:37:47;;;;;;;25.38;14.70;;;-1.60;99.90;;;;;;6280263;22;20425;-79
2023/03/01 07:40:13;;;;;;;24.63;14.70;;;-1.60;99.90;;;;;;6254583;22;20015;-79
2023/03/01 07:42:39;;;;;;;24.75;14.32;;;-1.50;99.90;;;;;;6280681;22;20393;-80
2023/03/01 07:45:06;;;;;;;28.17;16.00;;;-1.50;99.90;;;;;;6280559;22;20007;-78
2023/03/01 07:47:32;;;;;;;26.38;15.38;;;-1.40;99.90;;;;;;6280278;22;20083;-81
2023/03/01 07:49:57;;;;;;;27.83;15.38;;;-1.30;99.90;;;;;;6309576;22;20015;-79
2023/03/01 07:52:23;;;;;;;26.27;15.55;;;-1.30;99.90;;;;;;6283097;22;20011;-79
2023/03/01 07:54:49;;;;;;;30.58;16.48;;;-1.20;99.90;;;;;;6283026;22;20340;-79
2023/03/01 07:57:15;;;;;;;29.65;17.05;;;-1.10;99.90;;;;;;6282874;22;20444;-78
2023/03/01 07:59:40;;;;;;;31.15;16.48;;;-1.10;99.90;;;;;;6310076;22;20019;-78
2023/03/01 08:02:07;;;;;;;30.20;16.45;;;-1.10;99.90;;;;;;6310385;22;20011;-79
2023/03/01 08:04:33;;;;;;;30.13;16.48;;;-1.00;99.90;;;;;;6283366;22;20011;-79
2023/03/01 08:06:58;;;;;;;31.02;17.02;;;-1.00;99.90;;;;;;6283014;22;20436;-79
2023/03/01 08:09:24;;;;;;;31.92;17.30;;;-0.90;99.90;;;;;;6310021;22;20015;-78
2023/03/01 08:11:50;;;;;;;31.70;17.27;;;-0.90;99.90;;;;;;6282140;22;20035;-78
2023/03/01 08:14:16;;;;;;;34.10;18.20;;;-0.80;99.90;;;;;;6282500;22;20367;-79
2023/03/01 08:16:42;;;;;;;32.42;17.90;;;-0.80;99.90;;;;;;6282279;22;20012;-81
2023/03/01 08:19:10;;;;;;;36.88;19.35;;;-0.70;99.90;;;;;;6283251;22;20441;-79
2023/03/01 08:21:36;;;;;;;42.58;21.02;;;-0.60;99.90;;;;;;6309778;22;20015;-79
2023/03/01 08:24:06;;;;;;;42.30;21.38;;;-0.50;99.90;;;;;;6284741;22;20011;-79
2023/03/01 08:26:32;;;;;;;42.08;20.63;;;-0.40;99.90;;;;;;6294005;22;20341;-78
2023/03/01 08:28:59;;;;;;;43.15;21.52;;;-0.40;99.90;;;;;;6291678;22;20011;-75
2023/03/01 08:31:30;;;;;;;41.22;20.70;;;-0.30;99.90;;;;;;6297591;22;20064;-70
2023/03/01 08:33:59;;;;;;;41.05;21.88;;;-0.20;99.90;;;;;;6323786;22;20086;-78
2023/03/01 08:36:30;;;;;;;41.80;22.88;;;-0.10;99.90;;;;;;6258476;22;20068;-78
2023/03/01 08:38:55;;;;;;;45.05;23.17;;;0.00;99.90;;;;;;6283854;22;20043;-78
2023/03/01 08:41:21;;;;;;;45.72;24.13;;;0.00;99.90;;;;;;6282179;22;20453;-78
2023/03/01 08:43:47;;;;;;;47.63;24.33;;;0.10;99.90;;;;;;6310208;22;20052;-79
2023/03/01 08:46:13;;;;;;;42.03;21.83;;;0.30;99.90;;;;;;6282550;22;20019;-78
2023/03/01 08:48:39;;;;;;;43.55;22.90;;;0.40;99.90;;;;;;6257015;22;20007;-77
2023/03/01 08:51:10;;;;;;;43.85;23.27;;;0.50;99.90;;;;;;6282151;22;20404;-77
2023/03/01 08:53:35;;;;;;;48.38;24.65;;;0.60;99.90;;;;;;6282421;22;20090;-79
2023/03/01 08:56:02;;;;;;;49.28;24.00;;;0.70;99.90;;;;;;6282351;22;20018;-76
2023/03/01 08:58:28;;;;;;;50.42;25.98;;;0.90;99.90;;;;;;6309387;22;20011;-78
2023/03/01 09:00:56;;;;;;;50.85;25.33;;;1.00;99.90;;;;;;6308539;22;20081;-77
2023/03/01 09:03:22;;;;;;;54.70;26.85;;;1.10;99.90;;;;;;6282084;22;20069;-78
2023/03/01 09:05:50;;;;;;;47.92;25.10;;;1.20;99.90;;;;;;6308689;22;20455;-78
2023/03/01 09:08:22;;;;;;;53.85;27.23;;;1.40;99.90;;;;;;6309197;22;20025;-79
2023/03/01 09:10:48;;;;;;;52.38;26.17;;;2.00;99.90;;;;;;6309459;22;20038;-82
2023/03/01 09:13:17;;;;;;;49.63;26.55;;;3.20;99.90;;;;;;6309918;22;20015;-78
2023/03/01 09:15:42;;;;;;;50.70;25.88;;;4.20;99.90;;;;;;6282465;22;20023;-78
2023/03/01 09:18:08;;;;;;;45.90;25.80;;;5.20;99.90;;;;;;6309191;22;20004;-77
2023/03/01 09:20:37;;;;;;;51.40;25.05;;;5.90;99.90;;;;;;6256790;22;20007;-79
2023/03/01 09:23:02;;;;;;;45.50;24.92;;;6.40;99.90;;;;;;6281942;22;20019;-78
2023/03/01 09:25:28;;;;;;;45.42;24.65;;;6.60;99.90;;;;;;6281520;22;20528;-77
2023/03/01 09:27:54;;;;;;;41.35;24.10;;;6.60;99.90;;;;;;6281086;22;20011;-78
2023/03/01 09:30:20;;;;;;;41.65;24.45;;;6.40;99.90;;;;;;6281218;22;20015;-79
2023/03/01 09:32:46;;;;;;;41.92;24.13;;;6.20;99.90;;;;;;6280868;22;20460;-79
2023/03/01 09:35:12;;;;;;;44.30;23.60;;;6.00;99.90;;;;;;6281115;22;20120;-79
2023/03/01 09:37:42;;;;;;;38.22;22.85;;;5.80;99.90;;;;;;6281140;22;20349;-78
2023/03/01 09:40:15;;;;;;;38.33;22.20;;;5.60;99.90;;;;;;6281150;22;20011;-79
2023/03/01 09:42:50;;;;;;;37.53;21.80;;;5.50;99.90;;;;;;6280884;22;20336;-79
2023/03/01 09:45:35;;;;;;;37.00;21.33;;;5.20;99.90;;;;;;6281262;22;20031;-78
2023/03/01 09:48:03;;;;;;;38.63;22.30;;;5.00;99.90;;;;;;6280987;22;20082;-79
2023/03/01 09:50:35;;;;;;;35.30;21.05;;;4.90;99.90;;;;;;6255422;22;20061;-79
2023/03/01 09:53:06;;;;;;;36.35;20.92;;;4.90;99.90;;;;;;6280977;22;20019;-79
2023/03/01 09:55:50;;;;;;;37.38;20.95;;;4.80;99.90;;;;;;6308460;22;20332;-78
2023/03/01 09:58:31;;;;;;;38.05;19.83;;;4.80;99.90;;;;;;6255104;22;20011;-79
2023/03/01 10:01:02;;;;;;;37.67;21.35;;;5.00;99.90;;;;;;6275165;22;20011;-79
2023/03/01 10:03:57;;;;;;;37.08;20.25;;;5.10;99.90;;;;;;6277154;22;20043;-79
2023/03/01 10:06:23;;;;;;;43.55;21.50;;;5.30;99.90;;;;;;6275681;22;20014;-78
2023/03/01 10:09:10;;;;;;;34.97;19.38;;;5.40;99.90;;;;;;6277578;22;20035;-78
2023/03/01 10:11:40;;;;;;;35.00;19.38;;;5.70;99.90;;;;;;6276978;22;20016;-79
2023/03/01 10:14:32;;;;;;;34.25;18.67;;;5.80;99.90;;;;;;6277945;22;20306;-78
2023/03/01 10:17:25;;;;;;;30.33;18.02;;;5.90;99.90;;;;;;6275581;22;20066;-79
2023/03/01 10:19:51;;;;;;;27.50;16.35;;;6.10;99.90;;;;;;6275583;22;20044;-79
2023/03/01 10:22:21;;;;;;;26.48;15.90;;;6.30;99.90;;;;;;6275569;22;20047;-78
2023/03/01 10:24:47;;;;;;;28.48;15.95;;;6.40;99.90;;;;;;6276367;22;20488;-80
2023/03/01 10:27:34;;;;;;;28.13;15.75;;;6.60;99.90;;;;;;6275700;22;20094;-78
2023/03/01 10:30:19;;;;;;;26.30;15.68;;;6.70;99.90;;;;;;6275761;22;20042;-79
2023/03/01 10:32:48;;;;;;;26.02;15.35;;;6.90;99.90;;;;;;6249474;22;20008;-79
2023/03/01 10:35:19;;;;;;;26.40;16.33;;;7.00;99.90;;;;;;6275848;22;20007;-78
2023/03/01 10:38:03;;;;;;;27.73;15.48;;;7.10;99.90;;;;;;6275602;22;20012;-79
2023/03/01 10:40:29;;;;;;;22.90;14.45;;;7.30;99.90;;;;;;6275340;22;20027;-79
2023/03/01 10:42:59;;;;;;;22.63;13.27;;;7.40;99.90;;;;;;6275609;22;20043;-80
2023/03/01 10:45:31;;;;;;;23.88;14.27;;;7.50;99.90;;;;;;6275510;22;20445;-79
2023/03/01 10:48:19;;;;;;;23.77;13.88;;;7.60;99.90;;;;;;6277407;22;20086;-79
2023/03/01 10:51:06;;;;;;;24.95;15.13;;;7.70;99.90;;;;;;6249693;22;20015;-79
2023/03/01 10:53:43;;;;;;;25.48;14.93;;;7.90;99.90;;;;;;6274888;22;20099;-80
2023/03/01 10:56:15;;;;;;;24.85;15.23;;;8.00;99.90;;;;;;6274704;22;20345;-78
2023/03/01 10:59:02;;;;;;;26.33;15.35;;;8.10;99.90;;;;;;6275678;22;20015;-80
2023/03/01 11:01:34;;;;;;;24.75;14.88;;;8.20;99.90;;;;;;6265199;22;20015;-80
2023/03/01 11:04:06;;;;;;;25.33;14.85;;;8.40;99.90;;;;;;6280546;22;20015;-79
2023/03/01 11:06:34;;;;;;;25.13;14.57;;;8.40;99.90;;;;;;6280553;22;20011;-80
2023/03/01 11:09:21;;;;;;;23.15;14.48;;;8.60;99.90;;;;;;6280934;22;20079;-78
2023/03/01 11:11:56;;;;;;;23.25;13.50;;;8.60;99.90;;;;;;6306477;22;20341;-78
2023/03/01 11:14:29;;;;;;;24.65;13.27;;;8.70;99.90;;;;;;6307914;22;20022;-80
2023/03/01 11:17:12;;;;;;;23.83;14.30;;;8.90;99.90;;;;;;6280587;22;20346;-78
2023/03/01 11:19:38;;;;;;;21.95;13.85;;;9.00;99.90;;;;;;6307747;22;20011;-77
2023/03/01 11:22:19;;;;;;;24.52;13.82;;;9.10;99.90;;;;;;6280294;22;20011;-77
2023/03/01 11:24:48;;;;;;;21.65;12.57;;;9.10;99.90;;;;;;6281339;22;20434;-78
2023/03/01 11:27:19;;;;;;;24.27;13.38;;;9.20;99.90;;;;;;6282224;22;20011;-81
2023/03/01 11:30:01;;;;;;;21.98;13.20;;;9.30;99.90;;;;;;6256757;22;20017;-78
2023/03/01 11:32:34;;;;;;;18.08;11.00;;;9.50;99.90;;;;;;6309860;22;20082;-77
2023/03/01 11:35:16;;;;;;;19.08;11.45;;;9.60;99.90;;;;;;6282206;22;20078;-77
2023/03/01 11:37:58;;;;;;;21.67;12.68;;;9.70;99.90;;;;;;6309802;22;20021;-78
2023/03/01 11:40:29;;;;;;;18.95;11.90;;;9.80;99.90;;;;;;6282055;22;20018;-78
2023/03/01 11:43:15;;;;;;;20.58;12.25;;;9.90;99.90;;;;;;6309959;22;20007;-78
2023/03/01 11:46:10;;;;;;;22.80;13.00;;;10.00;99.90;;;;;;6282464;22;20022;-77
2023/03/01 11:49:09;;;;;;;21.58;12.75;;;10.10;99.90;;;;;;6308522;22;20463;-76
2023/03/01 11:51:47;;;;;;;19.95;12.13;;;10.30;99.90;;;;;;6282594;22;20017;-79
2023/03/01 11:54:25;;;;;;;23.17;12.38;;;10.30;99.90;;;;;;6283130;22;20026;-78
2023/03/01 11:57:29;;;;;;;23.27;12.63;;;10.40;99.90;;;;;;6281966;22;20015;-76
2023/03/01 12:00:04;;;;;;;19.27;11.55;;;10.50;99.90;;;;;;6256637;22;20016;-77
2023/03/01 12:02:47;;;;;;;24.00;12.70;;;10.60;99.90;;;;;;6282097;22;20306;-78
2023/03/01 12:05:32;;;;;;;20.25;12.23;;;10.60;99.90;;;;;;6309536;22;20090;-77
2023/03/01 12:08:09;;;;;;;21.17;12.50;;;10.60;99.90;;;;;;6281883;22;20018;-78
2023/03/01 12:11:01;;;;;;;21.55;13.02;;;10.70;99.90;;;;;;6281587;22;20448;-79
2023/03/01 12:14:04;;;;;;;21.02;12.45;;;10.80;99.90;;;;;;6281453;22;20015;-79
2023/03/01 12:16:50;;;;;;;22.48;12.68;;;10.90;99.90;;;;;;6281713;22;20128;-78
2023/03/01 12:19:36;;;;;;;23.13;13.30;;;10.90;99.90;;;;;;6281538;22;20019;-79
2023/03/01 12:22:06;;;;;;;;;;;11.00;99.90;;;;;;6255674;22;20026;-80
2023/03/01 12:25:12;;;;;;;22.40;12.45;;;11.20;99.90;;;;;;6309063;22;20271;-78
2023/03/01 12:27:46;;;;;;;19.95;12.43;;;11.40;99.90;;;;;;6309067;22;20007;-78
2023/03/01 12:30:21;;;;;;;18.85;12.00;;;11.50;99.90;;;;;;6281223;22;20039;-79
2023/03/01 12:33:09;;;;;;;20.48;11.70;;;11.60;99.90;;;;;;6281248;22;20140;-78
2023/03/01 12:36:10;;;;;;;18.17;11.85;;;11.80;99.90;;;;;;6264841;22;20015;-79
2023/03/01 12:38:52;;;;;;;20.20;11.57;;;12.00;99.90;;;;;;6281131;22;20016;-78
2023/03/01 12:41:42;;;;;;;21.75;12.02;;;12.00;99.90;;;;;;6281052;22;20016;-77
2023/03/01 12:44:08;;;;;;;17.50;11.05;;;12.00;99.90;;;;;;6281279;22;20022;-78
2023/03/01 12:47:05;;;;;;;18.27;11.52;;;12.00;99.90;;;;;;6280910;22;20007;-78
2023/03/01 12:49:38;;;;;;;21.85;11.73;;;12.00;99.90;;;;;;6280933;22;20008;-80
2023/03/01 12:52:11;;;;;;;19.90;12.15;;;12.00;99.90;;;;;;6308739;22;20102;-79
2023/03/01 12:54:37;;;;;;;20.83;12.55;;;12.00;99.90;;;;;;6308966;22;20298;-79
2023/03/01 12:57:18;;;;;;;19.48;12.13;;;12.10;99.90;;;;;;6280811;22;20050;-79
2023/03/01 13:00:26;;;;;;;19.90;12.18;;;12.30;99.90;;;;;;6280804;22;20011;-78
2023/03/01 13:03:03;;;;;;;19.20;11.82;;;12.40;99.90;;;;;;6249473;22;20066;-79
2023/03/01 13:05:37;;;;;;;18.13;11.18;;;12.40;99.90;;;;;;6250328;22;20011;-78
2023/03/01 13:08:32;;;;;;;18.45;11.02;;;12.40;99.90;;;;;;6250190;22;20356;-79
2023/03/01 13:11:11;;;;;;;19.20;11.32;;;12.40;99.90;;;;;;6249898;22;20011;-78
2023/03/01 13:13:37;;;;;;;19.27;11.02;;;12.40;99.90;;;;;;6250042;22;20081;-78
2023/03/01 13:16:29;;;;;;;17.42;11.00;;;12.50;99.90;;;;;;6249933;22;20386;-78
2023/03/01 13:19:29;;;;;;;17.52;10.82;;;12.60;99.90;;;;;;6204241;22;20015;-80
2023/03/01 13:21:55;;;;;;;18.73;11.80;;;12.70;99.90;;;;;;6161645;22;20011;-77
2023/03/01 13:24:26;;;;;;;18.42;10.77;;;12.80;99.90;;;;;;6277143;22;20068;-78
2023/03/01 13:27:08;;;;;;;18.08;11.77;;;12.70;99.90;;;;;;6250036;22;20122;-79
2023/03/01 13:29:54;;;;;;;17.77;11.60;;;12.60;99.90;;;;;;6250106;22;20069;-77
2023/03/01 13:32:41;;;;;;;16.95;10.98;;;12.70;99.90;;;;;;6249630;22;20433;-79
2023/03/01 13:35:16;;;;;;;18.50;11.88;;;12.80;99.90;;;;;;6250755;22;20019;-77
2023/03/01 13:37:42;;;;;;;;;;;12.80;99.90;;;;;;6250264;22;20012;-79
2023/03/01 13:40:20;;;;;;;20.02;11.90;;;12.80;99.90;;;;;;6249720;22;19922;-77
2023/03/01 13:42:54;;;;;;;18.83;11.30;;;13.00;99.90;;;;;;6249605;22;20007;-79
2023/03/01 13:45:34;;;;;;;21.17;12.18;;;12.80;99.90;;;;;;6249673;22;20064;-79
2023/03/01 13:48:10;;;;;;;20.35;11.95;;;12.80;99.90;;;;;;6276737;22;20012;-79
2023/03/01 13:50:47;;;;;;;19.25;12.18;;;12.90;99.90;;;;;;6249632;22;20015;-79
2023/03/01 13:53:18;;;;;;;19.05;11.55;;;13.00;99.90;;;;;;6249755;22;20027;-79
2023/03/01 13:55:59;;;;;;;19.10;12.82;;;12.90;99.90;;;;;;6276930;22;20027;-77
2023/03/01 13:58:32;;;;;;;19.13;11.55;;;12.90;99.90;;;;;;6253347;22;20061;-78
2023/03/01 14:01:08;;;;;;;19.27;11.98;;;12.90;99.90;;;;;;6290603;22;20390;-77
2023/03/01 14:03:41;;;;;;;18.35;11.70;;;12.90;99.90;;;;;;6311654;22;20007;-78
2023/03/01 14:06:17;;;;;;;18.23;11.88;;;12.80;99.90;;;;;;6300278;22;20007;-75
2023/03/01 14:08:44;;;;;;;19.25;11.95;;;12.70;99.90;;;;;;6327793;22;20039;-73
2023/03/01 14:11:13;;;;;;;18.38;11.82;;;12.70;99.90;;;;;;6284136;22;20022;-78
2023/03/01 14:14:21;;;;;;;16.83;11.82;;;12.70;99.90;;;;;;6281796;22;20019;-78
2023/03/01 14:17:01;;;;;;;16.98;11.68;;;12.80;99.90;;;;;;6281056;22;20074;-77
2023/03/01 14:19:29;;;;;;;18.88;11.40;;;12.50;99.90;;;;;;6308018;22;20015;-80
2023/03/01 14:22:12;;;;;;;16.58;11.88;;;12.50;99.90;;;;;;6307709;22;20012;-79
2023/03/01 14:24:48;;;;;;;17.83;11.90;;;12.40;99.90;;;;;;6280778;22;20007;-78
2023/03/01 14:27:15;;;;;;;16.92;11.43;;;12.50;99.90;;;;;;6281002;22;20061;-79
2023/03/01 14:29:40;;;;;;;18.55;12.07;;;12.50;99.90;;;;;;6308013;22;20011;-78
2023/03/01 14:32:24;;;;;;;18.25;11.40;;;12.60;99.90;;;;;;6280784;22;20069;-78
2023/03/01 14:34:50;;;;;;;19.45;12.23;;;12.60;99.90;;;;;;6255477;22;20004;-78
2023/03/01 14:37:30;;;;;;;19.63;12.77;;;12.60;99.90;;;;;;6280754;22;20018;-78
2023/03/01 14:39:57;;;;;;;19.30;12.38;;;12.50;99.90;;;;;;6256353;22;20022;-79
2023/03/01 14:42:27;;;;;;;20.38;13.30;;;12.50;99.90;;;;;;6280495;22;20452;-78
2023/03/01 14:44:55;;;;;;;21.00;12.98;;;12.50;99.90;;;;;;6280745;22;20011;-78
2023/03/01 14:47:33;;;;;;;21.35;12.63;;;12.50;99.90;;;;;;6280427;22;20011;-78
2023/03/01 14:50:08;;;;;;;22.02;13.27;;;12.50;99.90;;;;;;6280543;22;20018;-78
2023/03/01 14:52:39;;;;;;;18.73;12.53;;;12.40;99.90;;;;;;6255329;22;20383;-78
2023/03/01 14:55:15;;;;;;;21.08;13.40;;;12.30;99.90;;;;;;6307912;22;20742;-79
2023/03/01 14:57:44;;;;;;;20.65;12.80;;;12.30;99.90;;;;;;6308314;22;20022;-81
2023/03/01 15:00:23;;;;;;;21.13;12.77;;;12.20;99.90;;;;;;6281591;22;20019;-81
2023/03/01 15:02:53;;;;;;;22.00;13.10;;;12.30;99.90;;;;;;6251637;22;20012;-80
2023/03/01 15:05:29;;;;;;;18.88;12.35;;;12.20;99.90;;;;;;6279337;22;20460;-81
2023/03/01 15:07:57;;;;;;;22.58;13.68;;;12.20;99.90;;;;;;6252587;22;20043;-80
2023/03/01 15:10:26;;;;;;;18.55;11.55;;;12.20;99.90;;;;;;6251674;22;20485;-80
2023/03/01 15:12:52;;;;;;;19.38;12.40;;;12.30;99.90;;;;;;6278921;22;20109;-80
2023/03/01 15:15:35;;;;;;;20.92;12.48;;;12.30;99.90;;;;;;6251743;22;20305;-79
2023/03/01 15:18:20;;;;;;;19.80;11.82;;;12.40;99.90;;;;;;6251480;22;20023;-79
2023/03/01 15:20:48;;;;;;;19.08;11.90;;;12.40;99.90;;;;;;6226076;22;20086;-78
2023/03/01 15:23:28;;;;;;;19.95;11.70;;;12.40;99.90;;;;;;6251235;22;20348;-79
2023/03/01 15:25:58;;;;;;;18.13;11.65;;;12.50;99.90;;;;;;6252523;22;20039;-78
2023/03/01 15:28:31;;;;;;;21.23;11.32;;;12.60;99.90;;;;;;6251289;22;20008;-79
2023/03/01 15:31:02;;;;;;;18.77;11.75;;;12.60;99.90;;;;;;6226331;22;20041;-80
2023/03/01 15:33:31;;;;;;;18.00;11.73;;;12.60;99.90;;;;;;6225979;22;20027;-78
2023/03/01 15:35:59;;;;;;;17.13;10.82;;;12.60;99.90;;;;;;6278956;22;20007;-78
2023/03/01 15:38:30;;;;;;;19.20;12.10;;;12.80;99.90;;;;;;6278744;22;20019;-79
2023/03/01 15:40:57;;;;;;;15.73;10.23;;;12.90;99.90;;;;;;6251285;22;20038;-78
2023/03/01 15:43:40;;;;;;;17.85;11.00;;;12.90;99.90;;;;;;6250895;22;20018;-79
2023/03/01 15:46:15;;;;;;;16.75;11.00;;;12.80;99.90;;;;;;6251117;22;20475;-79
2023/03/01 15:48:45;;;;;;;15.85;10.23;;;12.80;99.90;;;;;;6250976;22;20051;-78
2023/03/01 15:51:14;;;;;;;16.90;10.18;;;12.70;99.90;;;;;;6250865;22;20018;-79
2023/03/01 15:53:40;;;;;;;14.45;10.52;;;12.50;99.90;;;;;;6251122;22;20015;-78
2023/03/01 15:56:07;;;;;;;15.82;10.02;;;12.30;99.90;;;;;;6250464;22;20012;-79
2023/03/01 15:58:33;;;;;;;16.27;10.65;;;12.10;99.90;;;;;;6251727;22;20015;-78
2023/03/01 16:00:58;;;;;;;18.30;10.43;;;11.90;99.90;;;;;;6254659;22;20021;-79
2023/03/01 16:03:24;;;;;;;16.55;10.93;;;11.80;99.90;;;;;;6250828;22;20015;-78
2023/03/01 16:05:51;;;;;;;17.48;9.32;;;11.90;99.90;;;;;;6276253;22;20044;-79
2023/03/01 16:08:18;;;;;;;14.43;10.18;;;12.20;99.90;;;;;;6276268;22;20051;-79
2023/03/01 16:10:44;;;;;;;16.85;10.07;;;12.40;99.90;;;;;;6276328;22;20043;-78
2023/03/01 16:13:11;;;;;;;15.07;10.02;;;12.50;99.90;;;;;;6276322;22;20064;-79
2023/03/01 16:15:38;;;;;;;13.88;9.70;;;12.50;99.90;;;;;;6277256;22;20020;-79
2023/03/01 16:18:09;;;;;;;16.95;10.50;;;12.40;99.90;;;;;;6276305;22;20031;-78
2023/03/01 16:20:35;;;;;;;14.65;10.05;;;12.20;99.90;;;;;;6275965;22;20073;-78
2023/03/01 16:23:02;;;;;;;13.77;10.05;;;12.00;99.90;;;;;;6277284;22;20410;-79
2023/03/01 16:25:29;;;;;;;14.45;9.98;;;11.80;99.90;;;;;;6275792;22;20018;-79
2023/03/01 16:27:55;;;;;;;14.68;10.55;;;11.60;99.90;;;;;;6277774;22;20008;-79
2023/03/01 16:30:22;;;;;;;15.43;10.50;;;11.50;99.90;;;;;;6275922;22;20012;-79
2023/03/01 16:32:49;;;;;;;18.08;11.00;;;11.40;99.90;;;;;;6250339;22;20014;-79
2023/03/01 16:35:17;;;;;;;17.52;10.60;;;11.10;99.90;;;;;;6275998;22;20015;-79
2023/03/01 16:37:43;;;;;;;17.50;11.65;;;10.80;99.90;;;;;;6275843;22;20026;-79
2023/03/01 16:40:21;;;;;;;17.95;11.25;;;10.60;99.90;;;;;;6276029;22;20035;-80
2023/03/01 16:42:49;;;;;;;17.23;10.93;;;10.20;99.90;;;;;;6276938;22;20011;-79
2023/03/01 16:45:16;;;;;;;18.50;11.27;;;9.90;99.90;;;;;;6276720;22;20019;-78
2023/03/01 16:47:41;;;;;;;17.23;11.70;;;9.70;99.90;;;;;;6278282;22;20018;-80
2023/03/01 16:50:08;;;;;;;21.30;12.48;;;9.50;99.90;;;;;;6277854;22;20016;-79
2023/03/01 16:52:34;;;;;;;20.52;12.43;;;9.40;99.90;;;;;;6275847;22;20015;-80
2023/03/01 16:55:00;;;;;;;21.13;12.60;;;9.30;99.90;;;;;;6276682;22;20015;-80
2023/03/01 16:57:25;;;;;;;23.48;12.88;;;9.10;99.90;;;;;;6278480;22;20008;-79